createdAt,value
2019-03-04T00:00:59.679Z,5.25
2019-03-04T00:01:39.659Z,5.97
2019-03-04T00:02:15.581Z,4.60
2019-03-04T00:02:51.113Z,5.17
2019-03-04T00:03:26.890Z,5.62
2019-03-04T00:04:03.594Z,4.70
2019-03-04T00:04:39.142Z,5.40
2019-03-04T00:05:14.690Z,5.60
2019-03-04T00:05:50.575Z,5.63
2019-03-04T00:06:26.443Z,4.90
2019-03-04T00:07:02.087Z,4.90
2019-03-04T00:07:38.783Z,5.50
2019-03-04T00:08:14.322Z,5.40
2019-03-04T00:08:49.956Z,4.97
2019-03-04T00:09:25.911Z,6.57
2019-03-04T00:10:01.476Z,4.80
2019-03-04T00:10:37.235Z,5.28
2019-03-04T00:11:12.824Z,5.58
2019-03-04T00:11:48.418Z,6.72
2019-03-04T00:12:23.957Z,3.98
2019-03-04T00:12:59.595Z,5.47
2019-03-04T00:13:35.487Z,6.30
2019-03-04T00:14:11.046Z,5.35
2019-03-04T00:14:46.586Z,4.65
2019-03-04T00:15:22.206Z,5.12
2019-03-04T00:15:57.789Z,6.67
2019-03-04T00:16:33.335Z,4.95
2019-03-04T00:17:08.898Z,5.45
2019-03-04T00:17:44.482Z,7.15
2019-03-04T00:18:20.374Z,5.67
2019-03-04T00:18:56.210Z,5.30
2019-03-04T00:19:32.359Z,6.70
2019-03-04T00:20:07.931Z,7.08
2019-03-04T00:20:44.715Z,8.98
2019-03-04T00:21:20.507Z,7.20
2019-03-04T00:21:56.347Z,6.22
2019-03-04T00:22:31.875Z,7.65
2019-03-04T00:23:07.651Z,6.90
2019-03-04T00:23:43.275Z,7.08
2019-03-04T00:24:18.817Z,6.37
2019-03-04T00:24:54.360Z,5.08
2019-03-04T00:25:30.182Z,8.03
2019-03-04T00:26:05.766Z,7.40
2019-03-04T00:26:41.342Z,6.97
2019-03-04T00:27:16.952Z,4.80
2019-03-04T00:27:52.495Z,5.08
2019-03-04T00:28:28.127Z,5.50
2019-03-04T00:29:03.956Z,7.25
2019-03-04T00:29:39.519Z,6.22
2019-03-04T00:30:15.064Z,6.25
2019-03-04T00:30:50.856Z,4.92
2019-03-04T00:31:27.442Z,6.30
2019-03-04T00:32:03.259Z,5.67
2019-03-04T00:32:38.831Z,4.40
2019-03-04T00:33:14.443Z,5.23
2019-03-04T00:33:50.223Z,5.37
2019-03-04T00:34:25.814Z,7.87
2019-03-04T00:35:01.652Z,6.22
2019-03-04T00:35:37.221Z,6.15
2019-03-04T00:36:12.763Z,4.95
2019-03-04T00:36:48.313Z,4.90
2019-03-04T00:37:23.851Z,7.33
2019-03-04T00:37:59.731Z,5.30
2019-03-04T00:38:35.275Z,7.20
2019-03-04T00:39:11.528Z,7.30
2019-03-04T00:39:47.062Z,9.50
2019-03-04T00:40:22.873Z,6.65
2019-03-04T00:40:59.389Z,6.17
2019-03-04T00:41:35.030Z,8.15
2019-03-04T00:42:10.912Z,5.50
2019-03-04T00:42:46.493Z,5.20
2019-03-04T00:43:22.090Z,5.70
2019-03-04T00:43:57.930Z,7.22
2019-03-04T00:44:33.462Z,7.15
2019-03-04T00:45:08.994Z,7.00
2019-03-04T00:45:44.576Z,6.17
2019-03-04T00:46:20.207Z,7.70
2019-03-04T00:46:55.788Z,6.80
2019-03-04T00:47:31.330Z,6.67
2019-03-04T00:48:06.891Z,5.40
2019-03-04T00:48:42.451Z,7.05
2019-03-04T00:49:18.306Z,5.53
2019-03-04T00:49:53.847Z,5.85
2019-03-04T00:50:29.417Z,5.65
2019-03-04T00:51:05.554Z,7.90
2019-03-04T00:51:41.109Z,6.20
2019-03-04T00:52:17.084Z,6.12
2019-03-04T00:52:52.795Z,6.53
2019-03-04T00:53:28.343Z,6.65
2019-03-04T00:54:03.878Z,6.08
2019-03-04T00:54:39.437Z,7.85
2019-03-04T00:55:14.963Z,5.67
2019-03-04T00:55:50.494Z,6.30
2019-03-04T00:56:26.687Z,6.72
2019-03-04T00:57:02.230Z,5.70
2019-03-04T00:57:39.047Z,6.40
2019-03-04T00:58:14.739Z,5.33
2019-03-04T00:58:50.290Z,8.08
2019-03-04T00:59:26.079Z,5.35
2019-03-04T01:00:01.651Z,5.15
2019-03-04T01:00:38.074Z,8.30
2019-03-04T01:01:13.610Z,6.17
2019-03-04T01:01:49.143Z,6.95
2019-03-04T01:02:24.736Z,4.95
2019-03-04T01:03:00.278Z,5.87
2019-03-04T01:03:36.090Z,5.03
2019-03-04T01:04:13.148Z,8.20
2019-03-04T01:04:48.701Z,7.03
2019-03-04T01:05:24.244Z,4.90
2019-03-04T01:05:59.785Z,7.12
2019-03-04T01:06:35.361Z,6.50
2019-03-04T01:07:11.186Z,7.17
2019-03-04T01:07:47.010Z,6.00
2019-03-04T01:08:22.539Z,6.75
2019-03-04T01:08:58.095Z,7.22
2019-03-04T01:09:33.636Z,6.08
2019-03-04T01:10:09.812Z,6.90
2019-03-04T01:10:45.449Z,4.57
2019-03-04T01:11:21.028Z,6.50
2019-03-04T01:11:56.623Z,8.10
2019-03-04T01:12:32.150Z,8.40
2019-03-04T01:13:07.719Z,7.03
2019-03-04T01:13:43.445Z,8.53
2019-03-04T01:14:18.997Z,5.22
2019-03-04T01:14:54.551Z,9.20
2019-03-04T01:15:30.106Z,4.97
2019-03-04T01:16:05.666Z,5.22
2019-03-04T01:16:41.287Z,7.00
2019-03-04T01:17:17.250Z,5.45
2019-03-04T01:17:53.446Z,5.80
2019-03-04T01:18:28.966Z,6.35
2019-03-04T01:19:04.503Z,5.08
2019-03-04T01:19:40.043Z,6.75
2019-03-04T01:20:16.581Z,5.47
2019-03-04T01:20:52.569Z,10.15
2019-03-04T01:21:28.382Z,6.00
2019-03-04T01:22:03.926Z,8.33
2019-03-04T01:22:39.511Z,4.75
2019-03-04T01:23:15.142Z,5.33
2019-03-04T01:23:51.627Z,4.50
2019-03-04T01:24:28.348Z,5.90
2019-03-04T01:25:04.943Z,9.23
2019-03-04T01:25:40.576Z,7.72
2019-03-04T01:26:17.185Z,6.03
2019-03-04T01:26:52.720Z,6.17
2019-03-04T01:27:28.252Z,5.67
2019-03-04T01:28:04.474Z,4.15
2019-03-04T01:28:40.013Z,6.35
2019-03-04T01:29:15.546Z,5.92
2019-03-04T01:29:51.586Z,6.35
2019-03-04T01:30:27.444Z,8.45
2019-03-04T01:31:02.993Z,6.85
2019-03-04T01:31:38.646Z,4.40
2019-03-04T01:32:14.427Z,6.45
2019-03-04T01:32:50.539Z,5.50
2019-03-04T01:33:26.078Z,4.28
2019-03-04T01:34:01.674Z,5.67
2019-03-04T01:34:38.524Z,6.67
2019-03-04T01:35:14.066Z,4.47
2019-03-04T01:35:49.616Z,5.35
2019-03-04T01:36:25.163Z,4.67
2019-03-04T01:37:01.083Z,6.17
2019-03-04T01:37:38.084Z,7.72
2019-03-04T01:38:13.717Z,4.03
2019-03-04T01:38:49.271Z,8.65
2019-03-04T01:39:24.880Z,4.97
2019-03-04T01:40:00.763Z,5.60
2019-03-04T01:40:37.574Z,6.00
2019-03-04T01:41:13.107Z,4.25
2019-03-04T01:41:48.654Z,6.65
2019-03-04T01:42:24.204Z,4.72
2019-03-04T01:42:59.765Z,5.67
2019-03-04T01:43:35.647Z,5.72
2019-03-04T01:44:11.183Z,4.47
2019-03-04T01:44:47.226Z,5.67
2019-03-04T01:45:23.131Z,4.97
2019-03-04T01:45:58.666Z,6.37
2019-03-04T01:46:34.732Z,5.62
2019-03-04T01:47:10.594Z,6.10
2019-03-04T01:47:46.411Z,5.97
2019-03-04T01:48:22.046Z,4.47
2019-03-04T01:48:57.990Z,3.98
2019-03-04T01:49:33.542Z,4.60
2019-03-04T01:50:10.942Z,4.72
2019-03-04T01:50:46.803Z,4.55
2019-03-04T01:51:22.665Z,4.22
2019-03-04T01:51:58.211Z,5.47
2019-03-04T01:52:33.998Z,4.60
2019-03-04T01:53:10.098Z,4.67
2019-03-04T01:53:45.663Z,5.40
2019-03-04T01:54:21.258Z,5.17
2019-03-04T01:54:56.794Z,4.58
2019-03-04T01:55:32.336Z,5.97
2019-03-04T01:56:07.913Z,5.45
2019-03-04T01:56:45.607Z,5.90
2019-03-04T01:57:21.312Z,3.33
2019-03-04T01:57:56.842Z,4.17
2019-03-04T01:58:32.406Z,3.40
2019-03-04T01:59:07.939Z,6.00
2019-03-04T01:59:43.558Z,5.83
2019-03-04T02:00:19.844Z,4.25
2019-03-04T02:00:55.518Z,5.92
2019-03-04T02:01:31.063Z,3.05
2019-03-04T02:02:06.632Z,2.58
2019-03-04T02:02:42.170Z,2.77
2019-03-04T02:03:17.722Z,5.92
2019-03-04T02:03:53.575Z,3.75
2019-03-04T02:04:29.139Z,3.37
2019-03-04T02:05:05.130Z,2.77
2019-03-04T02:05:40.850Z,5.30
2019-03-04T02:06:16.651Z,3.42
2019-03-04T02:06:52.197Z,3.05
2019-03-04T02:07:28.311Z,4.72
2019-03-04T02:08:04.184Z,3.55
2019-03-04T02:08:40.049Z,2.95
2019-03-04T02:09:15.593Z,4.08
2019-03-04T02:09:51.682Z,4.42
2019-03-04T02:10:27.290Z,6.00
2019-03-04T02:11:02.830Z,2.52
2019-03-04T02:11:38.416Z,2.62
2019-03-04T02:12:14.063Z,4.62
2019-03-04T02:12:49.674Z,3.25
2019-03-04T02:13:25.220Z,2.10
2019-03-04T02:14:00.775Z,3.05
2019-03-04T02:14:36.323Z,3.58
2019-03-04T02:15:13.373Z,2.98
2019-03-04T02:15:48.922Z,2.62
2019-03-04T02:16:25.099Z,3.37
2019-03-04T02:17:00.899Z,4.40
2019-03-04T02:17:36.499Z,3.77
2019-03-04T02:18:12.077Z,3.80
2019-03-04T02:18:47.730Z,3.00
2019-03-04T02:19:23.283Z,3.77
2019-03-04T02:19:58.911Z,4.62
2019-03-04T02:20:34.469Z,4.12
2019-03-04T02:21:10.298Z,4.00
2019-03-04T02:21:45.817Z,3.20
2019-03-04T02:22:21.438Z,5.22
2019-03-04T02:22:57.095Z,4.22
2019-03-04T02:23:32.647Z,3.52
2019-03-04T02:24:21.468Z,4.70
2019-03-04T02:24:57.024Z,3.33
2019-03-04T02:26:15.323Z,2.37
2019-03-04T02:26:51.128Z,2.17
2019-03-04T02:27:26.702Z,5.37
2019-03-04T02:28:02.590Z,2.80
2019-03-04T02:28:39.358Z,3.80
2019-03-04T02:29:14.893Z,2.72
2019-03-04T02:29:50.490Z,5.53
2019-03-04T02:30:27.028Z,2.77
2019-03-04T02:31:02.891Z,1.72
2019-03-04T02:31:38.852Z,2.60
2019-03-04T02:32:14.388Z,8.65
2019-03-04T02:32:50.033Z,3.80
2019-03-04T02:33:25.574Z,3.33
2019-03-04T02:34:01.155Z,3.02
2019-03-04T02:34:36.743Z,3.50
2019-03-04T02:35:12.404Z,3.60
2019-03-04T02:35:47.956Z,1.92
2019-03-04T02:36:23.811Z,3.75
2019-03-04T02:36:59.384Z,2.77
2019-03-04T02:37:34.963Z,2.87
2019-03-04T02:38:10.554Z,2.98
2019-03-04T02:38:46.471Z,2.87
2019-03-04T02:39:22.056Z,2.72
2019-03-04T02:39:57.607Z,2.50
2019-03-04T02:40:33.160Z,6.55
2019-03-04T02:41:08.724Z,3.08
2019-03-04T02:41:44.628Z,2.42
2019-03-04T02:42:20.168Z,2.50
2019-03-04T02:42:55.992Z,2.22
2019-03-04T02:43:31.545Z,3.55
2019-03-04T02:44:07.436Z,2.02
2019-03-04T02:44:44.036Z,2.85
2019-03-04T02:45:19.672Z,2.05
2019-03-04T02:45:55.293Z,2.22
2019-03-04T02:46:30.860Z,3.22
2019-03-04T02:47:06.773Z,2.85
2019-03-04T02:47:42.397Z,1.80
2019-03-04T02:48:18.002Z,2.12
2019-03-04T02:48:53.981Z,1.65
2019-03-04T02:49:29.757Z,2.72
2019-03-04T02:50:05.744Z,2.87
2019-03-04T02:50:41.365Z,2.25
2019-03-04T02:51:17.066Z,3.10
2019-03-04T02:51:52.680Z,2.22
2019-03-04T02:52:28.777Z,2.12
2019-03-04T02:53:04.345Z,3.92
2019-03-04T02:53:39.998Z,1.75
2019-03-04T02:54:15.706Z,2.55
2019-03-04T02:54:51.321Z,2.75
2019-03-04T02:55:26.875Z,1.77
2019-03-04T02:56:02.414Z,3.20
2019-03-04T02:56:37.987Z,2.33
2019-03-04T02:57:13.611Z,4.03
2019-03-04T02:57:49.170Z,4.12
2019-03-04T02:58:24.969Z,2.35
2019-03-04T02:59:00.597Z,1.65
2019-03-04T02:59:36.254Z,3.15
2019-03-04T03:00:12.623Z,3.77
2019-03-04T03:00:48.445Z,2.30
2019-03-04T03:01:23.975Z,2.15
2019-03-04T03:01:59.511Z,2.72
2019-03-04T03:02:35.071Z,1.85
2019-03-04T03:03:10.890Z,1.50
2019-03-04T03:03:46.467Z,2.85
2019-03-04T03:04:22.073Z,3.10
2019-03-04T03:04:57.705Z,2.27
2019-03-04T03:05:33.256Z,2.25
2019-03-04T03:06:08.806Z,1.98
2019-03-04T03:06:44.399Z,2.27
2019-03-04T03:07:19.992Z,2.70
2019-03-04T03:07:55.886Z,3.87
2019-03-04T03:08:31.499Z,1.50
2019-03-04T03:09:07.846Z,3.60
2019-03-04T03:09:44.014Z,1.70
2019-03-04T03:10:19.551Z,1.62
2019-03-04T03:10:55.087Z,2.15
2019-03-04T03:11:30.703Z,1.40
2019-03-04T03:12:06.242Z,2.12
2019-03-04T03:12:42.111Z,1.85
2019-03-04T03:13:17.657Z,2.80
2019-03-04T03:13:53.303Z,2.42
2019-03-04T03:14:29.219Z,2.95
2019-03-04T03:15:05.543Z,1.40
2019-03-04T03:15:41.104Z,2.17
2019-03-04T03:16:16.732Z,1.80
2019-03-04T03:16:52.277Z,1.50
2019-03-04T03:17:27.831Z,1.92
2019-03-04T03:18:03.374Z,1.80
2019-03-04T03:18:38.919Z,2.55
2019-03-04T03:19:14.497Z,1.22
2019-03-04T03:19:50.040Z,1.90
2019-03-04T03:20:25.581Z,1.52
2019-03-04T03:21:01.388Z,2.85
2019-03-04T03:21:37.971Z,2.80
2019-03-04T03:22:13.526Z,1.87
2019-03-04T03:22:49.455Z,2.10
2019-03-04T03:23:24.999Z,1.92
2019-03-04T03:24:00.907Z,2.25
2019-03-04T03:24:36.744Z,3.20
2019-03-04T03:25:12.302Z,2.40
2019-03-04T03:25:47.859Z,4.47
2019-03-04T03:26:23.472Z,1.75
2019-03-04T03:26:59.368Z,1.32
2019-03-04T03:27:35.196Z,3.65
2019-03-04T03:28:10.736Z,1.45
2019-03-04T03:28:46.266Z,1.60
2019-03-04T03:29:21.820Z,1.77
2019-03-04T03:29:57.679Z,1.42
2019-03-04T03:30:33.323Z,1.47
2019-03-04T03:31:08.926Z,5.97
2019-03-04T03:31:44.556Z,1.85
2019-03-04T03:32:20.184Z,2.02
2019-03-04T03:32:55.978Z,2.30
2019-03-04T03:33:31.789Z,2.10
2019-03-04T03:34:07.328Z,1.42
2019-03-04T03:34:42.936Z,1.92
2019-03-04T03:35:18.766Z,1.35
2019-03-04T03:35:54.326Z,2.15
2019-03-04T03:36:30.175Z,1.30
2019-03-04T03:37:05.720Z,1.42
2019-03-04T03:37:41.360Z,2.85
2019-03-04T03:38:17.245Z,3.08
2019-03-04T03:38:52.786Z,2.92
2019-03-04T03:39:28.315Z,1.50
2019-03-04T03:40:04.577Z,3.35
2019-03-04T03:40:41.487Z,3.08
2019-03-04T03:41:17.082Z,3.83
2019-03-04T03:41:52.621Z,2.52
2019-03-04T03:42:28.171Z,2.40
2019-03-04T03:43:03.694Z,2.90
2019-03-04T03:43:39.253Z,1.65
2019-03-04T03:44:14.793Z,3.20
2019-03-04T03:44:50.572Z,3.33
2019-03-04T03:45:26.433Z,2.30
2019-03-04T03:46:06.170Z,3.33
2019-03-04T03:46:41.756Z,1.85
2019-03-04T03:47:17.308Z,3.05
2019-03-04T03:47:52.880Z,3.35
2019-03-04T03:48:29.399Z,2.12
2019-03-04T03:49:05.285Z,3.15
2019-03-04T03:49:40.824Z,2.62
2019-03-04T03:50:16.476Z,2.15
2019-03-04T03:50:52.029Z,3.08
2019-03-04T03:51:27.571Z,1.77
2019-03-04T03:52:03.112Z,2.27
2019-03-04T03:52:38.696Z,2.42
2019-03-04T03:53:14.480Z,3.27
2019-03-04T03:53:50.020Z,2.35
2019-03-04T03:54:25.661Z,5.87
2019-03-04T03:55:01.512Z,2.00
2019-03-04T03:55:37.051Z,2.77
2019-03-04T03:56:13.686Z,2.20
2019-03-04T03:56:49.276Z,2.87
2019-03-04T03:57:24.809Z,1.90
2019-03-04T03:58:00.661Z,4.42
2019-03-04T03:58:36.437Z,2.33
2019-03-04T03:59:12.270Z,2.00
2019-03-04T03:59:47.809Z,3.42
2019-03-04T04:00:23.390Z,2.80
2019-03-04T04:00:59.514Z,2.98
2019-03-04T04:01:35.078Z,3.65
2019-03-04T04:02:10.899Z,2.10
2019-03-04T04:02:46.459Z,3.17
2019-03-04T04:03:21.998Z,2.30
2019-03-04T04:03:57.559Z,3.40
2019-03-04T04:04:33.141Z,2.12
2019-03-04T04:05:08.676Z,3.27
2019-03-04T04:05:44.546Z,2.52
2019-03-04T04:06:20.064Z,2.40
2019-03-04T04:06:55.595Z,2.77
2019-03-04T04:07:31.157Z,3.25
2019-03-04T04:08:07.586Z,2.52
2019-03-04T04:08:43.553Z,3.40
2019-03-04T04:09:19.953Z,2.37
2019-03-04T04:09:56.009Z,2.47
2019-03-04T04:10:31.708Z,2.92
2019-03-04T04:11:07.268Z,2.65
2019-03-04T04:11:42.868Z,2.55
2019-03-04T04:12:18.407Z,2.42
2019-03-04T04:12:54.060Z,3.37
2019-03-04T04:13:29.600Z,2.67
2019-03-04T04:14:05.272Z,3.02
2019-03-04T04:14:40.888Z,2.45
2019-03-04T04:15:16.530Z,2.50
2019-03-04T04:15:53.065Z,3.05
2019-03-04T04:16:28.611Z,3.00
2019-03-04T04:17:04.180Z,2.45
2019-03-04T04:17:40.899Z,3.17
2019-03-04T04:18:16.436Z,2.52
2019-03-04T04:18:52.059Z,2.50
2019-03-04T04:19:27.644Z,2.95
2019-03-04T04:20:03.265Z,2.20
2019-03-04T04:20:39.244Z,2.33
2019-03-04T04:21:14.831Z,2.62
2019-03-04T04:21:50.747Z,2.55
2019-03-04T04:22:26.303Z,2.30
2019-03-04T04:23:01.840Z,4.60
2019-03-04T04:23:37.391Z,3.55
2019-03-04T04:24:12.912Z,5.25
2019-03-04T04:24:48.698Z,2.15
2019-03-04T04:25:24.255Z,2.77
2019-03-04T04:25:59.895Z,2.70
2019-03-04T04:26:35.435Z,3.33
2019-03-04T04:27:10.986Z,3.42
2019-03-04T04:27:46.583Z,4.03
2019-03-04T04:28:22.212Z,2.45
2019-03-04T04:29:07.760Z,2.35
2019-03-04T04:29:43.382Z,2.60
2019-03-04T04:30:20.439Z,3.08
2019-03-04T04:30:56.012Z,3.22
2019-03-04T04:31:33.023Z,4.25
2019-03-04T04:32:08.552Z,3.98
2019-03-04T04:32:44.210Z,2.95
2019-03-04T04:33:19.780Z,2.70
2019-03-04T04:33:55.322Z,2.15
2019-03-04T04:34:30.898Z,2.42
2019-03-04T04:35:06.676Z,2.90
2019-03-04T04:35:42.376Z,3.67
2019-03-04T04:36:18.222Z,2.95
2019-03-04T04:36:53.783Z,4.53
2019-03-04T04:37:29.348Z,2.22
2019-03-04T04:38:04.895Z,4.60
2019-03-04T04:38:40.754Z,4.72
2019-03-04T04:39:16.312Z,5.78
2019-03-04T04:39:51.863Z,5.05
2019-03-04T04:40:27.816Z,6.05
2019-03-04T04:41:03.430Z,11.68
2019-03-04T04:41:38.994Z,6.37
2019-03-04T04:42:14.556Z,5.62
2019-03-04T04:42:50.104Z,6.35
2019-03-04T04:43:25.922Z,7.28
2019-03-04T04:44:01.483Z,10.10
2019-03-04T04:44:37.035Z,11.15
2019-03-04T04:45:12.597Z,8.25
2019-03-04T04:45:48.490Z,9.15
2019-03-04T04:46:52.223Z,6.37
2019-03-04T04:47:27.788Z,5.62
2019-03-04T04:48:03.382Z,8.73
2019-03-04T04:48:39.291Z,6.53
2019-03-04T04:49:14.836Z,17.57
2019-03-04T04:49:50.403Z,14.85
2019-03-04T04:50:26.260Z,17.77
2019-03-04T04:51:01.857Z,9.25
2019-03-04T04:51:37.642Z,6.33
2019-03-04T04:52:13.186Z,13.08
2019-03-04T04:52:48.738Z,26.37
2019-03-04T04:53:24.290Z,13.08
2019-03-04T04:54:00.095Z,7.58
2019-03-04T04:54:35.642Z,12.30
2019-03-04T04:55:11.176Z,8.53
2019-03-04T04:55:46.714Z,11.50
2019-03-04T04:56:22.252Z,11.73
2019-03-04T04:56:57.807Z,8.30
2019-03-04T04:57:33.367Z,5.47
2019-03-04T04:58:08.882Z,11.78
2019-03-04T04:58:44.560Z,11.03
2019-03-04T04:59:20.427Z,10.48
2019-03-04T04:59:56.982Z,8.43
2019-03-04T05:00:32.533Z,13.93
2019-03-04T05:01:08.075Z,7.05
2019-03-04T05:01:44.278Z,9.60
2019-03-04T05:02:20.143Z,8.75
2019-03-04T05:02:57.178Z,6.65
2019-03-04T05:03:32.958Z,6.95
2019-03-04T05:04:08.967Z,5.25
2019-03-04T05:04:44.522Z,7.97
2019-03-04T05:05:20.169Z,6.47
2019-03-04T05:05:57.065Z,5.53
2019-03-04T05:06:32.611Z,6.25
2019-03-04T05:07:08.164Z,7.03
2019-03-04T05:07:44.054Z,4.30
2019-03-04T05:08:19.946Z,4.92
2019-03-04T05:08:55.516Z,5.95
2019-03-04T05:09:31.110Z,10.43
2019-03-04T05:10:10.144Z,2.37
2019-03-04T05:10:45.702Z,10.85
2019-03-04T05:11:21.282Z,2.85
2019-03-04T05:11:56.965Z,6.12
2019-03-04T05:12:32.502Z,7.95
2019-03-04T05:13:08.069Z,3.52
2019-03-04T05:13:43.635Z,4.20
2019-03-04T05:14:19.194Z,7.50
2019-03-04T05:14:54.743Z,8.00
2019-03-04T05:15:31.334Z,2.62
2019-03-04T05:16:06.884Z,2.22
2019-03-04T05:16:42.426Z,4.10
2019-03-04T05:17:18.494Z,3.27
2019-03-04T05:17:54.038Z,1.72
2019-03-04T05:18:29.595Z,2.58
2019-03-04T05:19:05.135Z,6.67
2019-03-04T05:19:40.878Z,2.87
2019-03-04T05:20:18.877Z,4.30
2019-03-04T05:20:56.014Z,3.47
2019-03-04T05:21:31.568Z,4.25
2019-03-04T05:22:07.379Z,4.45
2019-03-04T05:22:42.968Z,5.80
2019-03-04T05:23:18.507Z,2.20
2019-03-04T05:23:54.087Z,3.27
2019-03-04T05:24:29.774Z,3.62
2019-03-04T05:25:05.516Z,14.35
2019-03-04T05:25:41.097Z,2.92
2019-03-04T05:26:16.651Z,1.50
2019-03-04T05:26:52.517Z,3.00
2019-03-04T05:27:28.051Z,1.20
2019-03-04T05:28:03.830Z,3.45
2019-03-04T05:28:39.683Z,2.60
2019-03-04T05:29:15.508Z,2.22
2019-03-04T05:29:51.052Z,1.55
2019-03-04T05:30:26.624Z,2.58
2019-03-04T05:31:02.167Z,2.80
2019-03-04T05:31:38.087Z,2.80
2019-03-04T05:32:13.971Z,2.52
2019-03-04T05:32:49.527Z,3.80
2019-03-04T05:33:25.096Z,3.95
2019-03-04T05:34:01.615Z,1.37
2019-03-04T05:34:37.295Z,1.90
2019-03-04T05:35:12.872Z,1.45
2019-03-04T05:35:48.435Z,2.33
2019-03-04T05:36:23.992Z,3.22
2019-03-04T05:36:59.859Z,3.98
2019-03-04T05:37:35.407Z,2.95
2019-03-04T05:38:11.275Z,1.07
2019-03-04T05:38:46.819Z,10.45
2019-03-04T05:39:22.454Z,2.30
2019-03-04T05:39:58.075Z,2.90
2019-03-04T05:40:33.615Z,2.62
2019-03-04T05:41:09.191Z,2.72
2019-03-04T05:41:44.727Z,1.72
2019-03-04T05:42:20.291Z,4.00
2019-03-04T05:42:57.151Z,1.45
2019-03-04T05:43:33.037Z,2.00
2019-03-04T05:44:08.627Z,2.75
2019-03-04T05:44:44.207Z,3.45
2019-03-04T05:45:20.425Z,1.77
2019-03-04T05:45:55.982Z,2.65
2019-03-04T05:46:31.658Z,4.40
2019-03-04T05:47:07.542Z,3.92
2019-03-04T05:47:43.114Z,5.72
2019-03-04T05:48:19.307Z,2.08
2019-03-04T05:48:55.198Z,2.45
2019-03-04T05:49:30.732Z,3.80
2019-03-04T05:50:07.768Z,3.20
2019-03-04T05:50:43.847Z,2.08
2019-03-04T05:51:19.385Z,2.08
2019-03-04T05:51:54.988Z,1.62
2019-03-04T05:52:30.533Z,1.95
2019-03-04T05:53:06.115Z,6.30
2019-03-04T05:53:41.781Z,6.85
2019-03-04T05:54:17.710Z,5.15
2019-03-04T05:54:53.265Z,1.55
2019-03-04T05:55:28.802Z,2.45
2019-03-04T05:56:04.346Z,4.75
2019-03-04T05:56:40.148Z,2.65
2019-03-04T05:57:16.007Z,1.82
2019-03-04T05:57:51.576Z,4.65
2019-03-04T05:58:27.475Z,7.55
2019-03-04T05:59:03.042Z,1.67
2019-03-04T05:59:38.591Z,3.20
2019-03-04T06:00:16.176Z,4.35
2019-03-04T06:01:36.219Z,3.75
2019-03-04T06:02:12.254Z,2.83
2019-03-04T06:02:47.899Z,4.72
2019-03-04T06:03:23.447Z,4.75
2019-03-04T06:04:04.543Z,2.80
2019-03-04T06:04:41.693Z,4.28
2019-03-04T06:05:17.239Z,3.58
2019-03-04T06:05:52.784Z,3.83
2019-03-04T06:06:43.872Z,5.90
2019-03-04T06:07:56.699Z,2.83
2019-03-04T06:08:32.248Z,4.33
2019-03-04T06:09:09.336Z,4.25
2019-03-04T06:09:44.912Z,3.35
2019-03-04T06:10:20.459Z,6.47
2019-03-04T06:10:57.103Z,2.67
2019-03-04T06:11:33.051Z,9.63
2019-03-04T06:12:08.594Z,5.87
2019-03-04T06:12:44.326Z,4.42
2019-03-04T06:13:19.924Z,5.53
2019-03-04T06:13:55.467Z,3.50
2019-03-04T06:14:31.287Z,4.70
2019-03-04T06:15:09.752Z,11.60
2019-03-04T06:15:45.303Z,17.67
2019-03-04T06:16:20.859Z,13.50
2019-03-04T06:16:56.700Z,9.63
2019-03-04T06:17:32.524Z,4.50
2019-03-04T06:18:08.082Z,9.60
2019-03-04T06:18:43.736Z,6.67
2019-03-04T06:19:19.616Z,3.43
2019-03-04T06:19:55.196Z,5.53
2019-03-04T06:20:31.255Z,6.57
2019-03-04T06:21:07.171Z,3.83
2019-03-04T06:21:42.762Z,5.43
2019-03-04T06:22:18.643Z,6.37
2019-03-04T06:22:54.214Z,4.10
2019-03-04T06:23:30.103Z,7.70
2019-03-04T06:24:05.668Z,6.87
2019-03-04T06:24:41.547Z,4.63
2019-03-04T06:25:19.131Z,4.53
2019-03-04T06:25:54.668Z,6.60
2019-03-04T06:26:30.207Z,10.80
2019-03-04T06:27:06.182Z,6.03
2019-03-04T06:27:41.867Z,7.87
2019-03-04T06:28:17.558Z,4.30
2019-03-04T06:28:53.114Z,5.43
2019-03-04T06:29:28.644Z,3.57
2019-03-04T06:30:04.711Z,3.73
2019-03-04T06:30:40.311Z,3.00
2019-03-04T06:31:15.895Z,5.70
2019-03-04T06:31:51.916Z,2.30
2019-03-04T06:32:27.828Z,4.50
2019-03-04T06:33:03.370Z,7.20
2019-03-04T06:33:38.925Z,6.37
2019-03-04T06:34:14.464Z,5.10
2019-03-04T06:34:50.016Z,6.57
2019-03-04T06:35:25.550Z,3.20
2019-03-04T06:36:01.089Z,4.47
2019-03-04T06:36:36.663Z,3.67
2019-03-04T06:37:12.456Z,1.90
2019-03-04T06:37:48.247Z,4.13
2019-03-04T06:38:24.086Z,8.13
2019-03-04T06:38:59.635Z,3.67
2019-03-04T06:39:35.171Z,2.37
2019-03-04T06:40:11.863Z,1.63
2019-03-04T06:40:47.515Z,3.13
2019-03-04T06:41:23.047Z,3.43
2019-03-04T06:41:58.613Z,4.10
2019-03-04T06:42:34.431Z,4.67
2019-03-04T06:43:09.994Z,3.97
2019-03-04T06:43:45.545Z,3.63
2019-03-04T06:44:21.096Z,2.67
2019-03-04T06:44:56.681Z,4.90
2019-03-04T06:45:32.249Z,4.17
2019-03-04T06:46:08.183Z,4.83
2019-03-04T06:46:43.762Z,3.10
2019-03-04T06:47:19.551Z,6.03
2019-03-04T06:47:55.109Z,4.20
2019-03-04T06:48:30.668Z,6.23
2019-03-04T06:49:06.227Z,4.43
2019-03-04T06:49:41.824Z,4.67
2019-03-04T06:50:44.903Z,4.87
2019-03-04T06:51:25.618Z,5.50
2019-03-04T06:52:01.160Z,5.87
2019-03-04T06:52:36.985Z,3.43
2019-03-04T06:53:12.522Z,3.60
2019-03-04T06:54:08.714Z,6.13
2019-03-04T06:54:57.232Z,3.47
2019-03-04T06:55:54.234Z,2.87
2019-03-04T06:56:42.914Z,4.00
2019-03-04T06:57:28.527Z,5.50
2019-03-04T06:58:02.756Z,2.10
2019-03-04T06:58:42.222Z,3.80
2019-03-04T06:59:33.910Z,4.03
2019-03-04T07:00:30.477Z,7.00
2019-03-04T07:01:10.577Z,7.23
2019-03-04T07:01:50.119Z,4.50
2019-03-04T07:02:26.108Z,4.17
2019-03-04T07:03:04.370Z,3.60
2019-03-04T07:03:50.743Z,5.20
2019-03-04T07:04:31.804Z,4.60
2019-03-04T07:05:48.667Z,3.43
2019-03-04T07:06:24.214Z,5.40
2019-03-04T07:06:59.755Z,4.07
2019-03-04T07:07:35.302Z,4.20
2019-03-04T07:08:50.566Z,3.33
2019-03-04T07:09:26.155Z,5.07
2019-03-04T07:10:01.746Z,4.97
2019-03-04T07:10:37.311Z,3.03
2019-03-04T07:11:14.634Z,5.13
2019-03-04T07:11:53.983Z,5.53
2019-03-04T07:12:29.855Z,5.17
2019-03-04T07:13:05.459Z,5.23
2019-03-04T07:13:41.323Z,5.67
2019-03-04T07:14:16.882Z,6.27
2019-03-04T07:14:52.803Z,7.10
2019-03-04T07:15:28.359Z,9.90
2019-03-04T07:16:03.915Z,4.50
2019-03-04T07:16:39.480Z,6.77
2019-03-04T07:17:15.015Z,4.13
2019-03-04T07:17:50.837Z,5.10
2019-03-04T07:18:26.395Z,6.30
2019-03-04T07:19:05.328Z,5.80
2019-03-04T07:19:41.516Z,5.87
2019-03-04T07:20:17.102Z,5.23
2019-03-04T07:20:52.655Z,5.33
2019-03-04T07:21:28.484Z,4.70
2019-03-04T07:22:05.006Z,8.00
2019-03-04T07:22:40.576Z,6.73
2019-03-04T07:23:16.119Z,4.70
2019-03-04T07:23:51.664Z,10.33
2019-03-04T07:24:27.477Z,7.93
2019-03-04T07:25:03.018Z,5.37
2019-03-04T07:25:39.683Z,5.13
2019-03-04T07:26:15.642Z,5.13
2019-03-04T07:26:51.199Z,5.33
2019-03-04T07:27:26.759Z,3.97
2019-03-04T07:28:02.311Z,6.40
2019-03-04T07:28:39.442Z,8.53
2019-03-04T07:29:15.167Z,6.73
2019-03-04T07:29:50.818Z,5.57
2019-03-04T07:30:26.383Z,5.97
2019-03-04T07:31:02.342Z,4.60
2019-03-04T07:31:38.192Z,5.10
2019-03-04T07:32:14.531Z,5.83
2019-03-04T07:32:50.096Z,4.87
2019-03-04T07:33:25.649Z,5.33
2019-03-04T07:34:02.568Z,3.97
2019-03-04T07:34:38.103Z,4.67
2019-03-04T07:35:13.664Z,5.67
2019-03-04T07:35:49.607Z,7.90
2019-03-04T07:36:25.529Z,6.33
2019-03-04T07:37:01.114Z,5.13
2019-03-04T07:37:36.662Z,5.37
2019-03-04T07:38:53.094Z,5.60
2019-03-04T07:39:28.635Z,6.40
2019-03-04T07:40:05.119Z,5.37
2019-03-04T07:40:41.052Z,5.20
2019-03-04T07:41:16.595Z,4.47
2019-03-04T07:41:56.634Z,6.23
2019-03-04T07:42:32.170Z,8.70
2019-03-04T07:43:07.739Z,7.10
2019-03-04T07:43:43.534Z,5.23
2019-03-04T07:44:19.435Z,4.83
2019-03-04T07:44:55.003Z,5.00
2019-03-04T07:45:30.552Z,11.63
2019-03-04T07:46:06.095Z,6.87
2019-03-04T07:46:41.648Z,6.17
2019-03-04T07:47:17.197Z,5.23
2019-03-04T07:47:52.818Z,7.93
2019-03-04T07:48:28.675Z,4.77
2019-03-04T07:49:04.227Z,5.93
2019-03-04T07:49:40.260Z,6.60
2019-03-04T07:50:15.912Z,6.07
2019-03-04T07:50:51.452Z,4.83
2019-03-04T07:51:29.970Z,5.07
2019-03-04T07:52:05.514Z,8.23
2019-03-04T07:52:41.111Z,5.27
2019-03-04T07:53:19.025Z,6.40
2019-03-04T07:53:53.943Z,5.70
2019-03-04T07:54:29.843Z,6.23
2019-03-04T07:55:05.394Z,6.53
2019-03-04T07:55:40.943Z,10.00
2019-03-04T07:56:16.548Z,6.03
2019-03-04T07:56:52.464Z,4.47
2019-03-04T07:57:28.006Z,3.60
2019-03-04T07:58:03.563Z,6.23
2019-03-04T07:58:39.091Z,8.73
2019-03-04T07:59:14.634Z,4.37
2019-03-04T07:59:50.158Z,7.43
2019-03-04T08:00:25.856Z,7.60
2019-03-04T08:01:01.721Z,4.73
2019-03-04T08:01:37.571Z,7.10
2019-03-04T08:02:13.411Z,6.87
2019-03-04T08:02:48.982Z,3.73
2019-03-04T08:03:24.514Z,3.87
2019-03-04T08:04:00.048Z,5.17
2019-03-04T08:04:35.587Z,6.00